sensor_id;sensor_type;location;lat;lon;timestamp;P1;durP1;ratioP1;P2;durP2;ratioP2
28960;SDS011;16068;42.896;20.868;2022-11-21T00:00:05;5.75;;;2.60;;
28960;SDS011;16068;42.896;20.868;2022-11-21T00:02:52;3.95;;;2.08;;
28960;SDS011;16068;42.896;20.868;2022-11-21T00:05:38;4.70;;;2.70;;
28960;SDS011;16068;42.896;20.868;2022-11-21T00:08:28;5.80;;;3.47;;
28960;SDS011;16068;42.896;20.868;2022-11-21T00:11:15;11.65;;;4.20;;
28960;SDS011;16068;42.896;20.868;2022-11-21T00:14:01;4.40;;;2.92;;
28960;SDS011;16068;42.896;20.868;2022-11-21T00:16:47;22.45;;;5.38;;
28960;SDS011;16068;42.896;20.868;2022-11-21T00:19:41;6.43;;;3.17;;
28960;SDS011;16068;42.896;20.868;2022-11-21T00:22:27;2.63;;;1.58;;
28960;SDS011;16068;42.896;20.868;2022-11-21T00:25:13;1.92;;;0.80;;
28960;SDS011;16068;42.896;20.868;2022-11-21T00:27:59;3.70;;;0.60;;
28960;SDS011;16068;42.896;20.868;2022-11-21T00:30:45;1.00;;;0.52;;
28960;SDS011;16068;42.896;20.868;2022-11-21T00:33:31;1.10;;;0.60;;
28960;SDS011;16068;42.896;20.868;2022-11-21T00:36:18;1.50;;;0.60;;
28960;SDS011;16068;42.896;20.868;2022-11-21T00:39:05;0.80;;;0.50;;
28960;SDS011;16068;42.896;20.868;2022-11-21T00:41:50;0.88;;;0.47;;
28960;SDS011;16068;42.896;20.868;2022-11-21T00:44:36;3.13;;;0.50;;
28960;SDS011;16068;42.896;20.868;2022-11-21T00:47:22;0.88;;;0.50;;
28960;SDS011;16068;42.896;20.868;2022-11-21T00:50:08;0.32;;;0.32;;
28960;SDS011;16068;42.896;20.868;2022-11-21T00:52:54;0.30;;;0.30;;
28960;SDS011;16068;42.896;20.868;2022-11-21T00:55:41;0.60;;;0.50;;
28960;SDS011;16068;42.896;20.868;2022-11-21T00:58:27;1.30;;;0.60;;
28960;SDS011;16068;42.896;20.868;2022-11-21T01:01:13;0.88;;;0.40;;
28960;SDS011;16068;42.896;20.868;2022-11-21T01:04:01;0.85;;;0.40;;
28960;SDS011;16068;42.896;20.868;2022-11-21T01:06:47;2.03;;;0.45;;
28960;SDS011;16068;42.896;20.868;2022-11-21T01:09:34;1.48;;;0.60;;
28960;SDS011;16068;42.896;20.868;2022-11-21T01:12:20;0.63;;;0.40;;
28960;SDS011;16068;42.896;20.868;2022-11-21T01:15:06;0.47;;;0.30;;
28960;SDS011;16068;42.896;20.868;2022-11-21T01:17:52;0.55;;;0.50;;
28960;SDS011;16068;42.896;20.868;2022-11-21T01:20:38;2.78;;;0.52;;
28960;SDS011;16068;42.896;20.868;2022-11-21T01:23:25;1.67;;;0.50;;
28960;SDS011;16068;42.896;20.868;2022-11-21T01:26:11;1.27;;;0.60;;
28960;SDS011;16068;42.896;20.868;2022-11-21T01:28:59;0.90;;;0.60;;
28960;SDS011;16068;42.896;20.868;2022-11-21T01:31:45;2.63;;;0.50;;
28960;SDS011;16068;42.896;20.868;2022-11-21T01:34:31;0.80;;;0.60;;
28960;SDS011;16068;42.896;20.868;2022-11-21T01:37:17;0.50;;;0.40;;
28960;SDS011;16068;42.896;20.868;2022-11-21T01:40:03;6.50;;;0.50;;
28960;SDS011;16068;42.896;20.868;2022-11-21T01:42:52;0.45;;;0.40;;
28960;SDS011;16068;42.896;20.868;2022-11-21T01:46:00;0.40;;;0.30;;
28960;SDS011;16068;42.896;20.868;2022-11-21T01:51:49;0.52;;;0.40;;
28960;SDS011;16068;42.896;20.868;2022-11-21T01:57:40;0.30;;;0.30;;
28960;SDS011;16068;42.896;20.868;2022-11-21T02:00:34;0.40;;;0.32;;
28960;SDS011;16068;42.896;20.868;2022-11-21T02:03:25;0.40;;;0.40;;
28960;SDS011;16068;42.896;20.868;2022-11-21T02:06:13;0.98;;;0.47;;
28960;SDS011;16068;42.896;20.868;2022-11-21T02:09:00;1.05;;;0.57;;
28960;SDS011;16068;42.896;20.868;2022-11-21T02:15:14;2.50;;;0.40;;
28960;SDS011;16068;42.896;20.868;2022-11-21T02:18:01;0.50;;;0.35;;
28960;SDS011;16068;42.896;20.868;2022-11-21T02:20:48;0.85;;;0.35;;
28960;SDS011;16068;42.896;20.868;2022-11-21T02:24:08;0.40;;;0.40;;
28960;SDS011;16068;42.896;20.868;2022-11-21T02:26:57;0.77;;;0.30;;
28960;SDS011;16068;42.896;20.868;2022-11-21T02:29:44;0.70;;;0.28;;
28960;SDS011;16068;42.896;20.868;2022-11-21T02:32:31;1.00;;;0.35;;
28960;SDS011;16068;42.896;20.868;2022-11-21T02:35:21;1.05;;;0.20;;
28960;SDS011;16068;42.896;20.868;2022-11-21T02:38:20;0.50;;;0.30;;
28960;SDS011;16068;42.896;20.868;2022-11-21T02:41:13;0.95;;;0.38;;
28960;SDS011;16068;42.896;20.868;2022-11-21T02:44:06;1.55;;;0.20;;
28960;SDS011;16068;42.896;20.868;2022-11-21T02:46:56;0.30;;;0.30;;
28960;SDS011;16068;42.896;20.868;2022-11-21T02:49:51;0.20;;;0.20;;
28960;SDS011;16068;42.896;20.868;2022-11-21T02:52:46;0.75;;;0.28;;
28960;SDS011;16068;42.896;20.868;2022-11-21T02:55:32;0.38;;;0.22;;
28960;SDS011;16068;42.896;20.868;2022-11-21T02:58:21;2.38;;;0.30;;
28960;SDS011;16068;42.896;20.868;2022-11-21T03:01:10;0.40;;;0.30;;
28960;SDS011;16068;42.896;20.868;2022-11-21T03:03:56;0.20;;;0.20;;
28960;SDS011;16068;42.896;20.868;2022-11-21T03:06:42;0.60;;;0.20;;
28960;SDS011;16068;42.896;20.868;2022-11-21T03:09:28;0.22;;;0.20;;
28960;SDS011;16068;42.896;20.868;2022-11-21T03:12:14;0.43;;;0.15;;
28960;SDS011;16068;42.896;20.868;2022-11-21T03:15:00;1.17;;;0.32;;
28960;SDS011;16068;42.896;20.868;2022-11-21T03:17:47;0.30;;;0.30;;
28960;SDS011;16068;42.896;20.868;2022-11-21T03:20:34;0.30;;;0.20;;
28960;SDS011;16068;42.896;20.868;2022-11-21T03:23:20;0.17;;;0.17;;
28960;SDS011;16068;42.896;20.868;2022-11-21T03:26:06;0.28;;;0.28;;
28960;SDS011;16068;42.896;20.868;2022-11-21T03:28:51;0.20;;;0.20;;
28960;SDS011;16068;42.896;20.868;2022-11-21T03:31:37;0.30;;;0.20;;
28960;SDS011;16068;42.896;20.868;2022-11-21T03:34:23;0.50;;;0.20;;
28960;SDS011;16068;42.896;20.868;2022-11-21T03:37:09;0.40;;;0.30;;
28960;SDS011;16068;42.896;20.868;2022-11-21T03:39:55;0.38;;;0.20;;
28960;SDS011;16068;42.896;20.868;2022-11-21T03:42:41;0.30;;;0.20;;
28960;SDS011;16068;42.896;20.868;2022-11-21T03:45:27;0.20;;;0.10;;
28960;SDS011;16068;42.896;20.868;2022-11-21T03:48:14;0.10;;;0.10;;
28960;SDS011;16068;42.896;20.868;2022-11-21T03:51:04;0.13;;;0.13;;
28960;SDS011;16068;42.896;20.868;2022-11-21T03:53:50;0.52;;;0.30;;
28960;SDS011;16068;42.896;20.868;2022-11-21T03:56:39;0.20;;;0.20;;
28960;SDS011;16068;42.896;20.868;2022-11-21T03:59:25;0.40;;;0.20;;
28960;SDS011;16068;42.896;20.868;2022-11-21T04:02:11;0.20;;;0.20;;
28960;SDS011;16068;42.896;20.868;2022-11-21T04:04:56;0.50;;;0.28;;
28960;SDS011;16068;42.896;20.868;2022-11-21T04:07:42;1.02;;;0.30;;
28960;SDS011;16068;42.896;20.868;2022-11-21T04:10:31;0.30;;;0.20;;
28960;SDS011;16068;42.896;20.868;2022-11-21T04:13:21;0.10;;;0.10;;
28960;SDS011;16068;42.896;20.868;2022-11-21T04:16:07;0.10;;;0.10;;
28960;SDS011;16068;42.896;20.868;2022-11-21T04:18:56;0.40;;;0.20;;
28960;SDS011;16068;42.896;20.868;2022-11-21T04:21:42;0.20;;;0.20;;
28960;SDS011;16068;42.896;20.868;2022-11-21T04:24:30;0.20;;;0.20;;
28960;SDS011;16068;42.896;20.868;2022-11-21T04:27:16;0.50;;;0.35;;
28960;SDS011;16068;42.896;20.868;2022-11-21T04:30:01;0.80;;;0.20;;
28960;SDS011;16068;42.896;20.868;2022-11-21T04:32:51;2.92;;;0.40;;
28960;SDS011;16068;42.896;20.868;2022-11-21T04:35:37;0.20;;;0.20;;
28960;SDS011;16068;42.896;20.868;2022-11-21T04:38:23;0.30;;;0.20;;
28960;SDS011;16068;42.896;20.868;2022-11-21T04:41:09;0.68;;;0.30;;
28960;SDS011;16068;42.896;20.868;2022-11-21T04:43:57;0.20;;;0.20;;
28960;SDS011;16068;42.896;20.868;2022-11-21T04:46:43;0.32;;;0.20;;
28960;SDS011;16068;42.896;20.868;2022-11-21T04:49:29;0.70;;;0.30;;
28960;SDS011;16068;42.896;20.868;2022-11-21T04:52:15;0.30;;;0.20;;
28960;SDS011;16068;42.896;20.868;2022-11-21T04:55:01;0.30;;;0.30;;
28960;SDS011;16068;42.896;20.868;2022-11-21T04:57:48;10.50;;;5.13;;
28960;SDS011;16068;42.896;20.868;2022-11-21T05:00:34;3.42;;;0.70;;
28960;SDS011;16068;42.896;20.868;2022-11-21T05:03:20;0.28;;;0.28;;
28960;SDS011;16068;42.896;20.868;2022-11-21T05:06:06;0.30;;;0.30;;
28960;SDS011;16068;42.896;20.868;2022-11-21T05:08:53;0.88;;;0.40;;
28960;SDS011;16068;42.896;20.868;2022-11-21T05:11:39;0.75;;;0.30;;
28960;SDS011;16068;42.896;20.868;2022-11-21T05:14:43;3.88;;;0.73;;
28960;SDS011;16068;42.896;20.868;2022-11-21T05:17:29;0.40;;;0.40;;
28960;SDS011;16068;42.896;20.868;2022-11-21T05:20:15;0.75;;;0.38;;
28960;SDS011;16068;42.896;20.868;2022-11-21T05:23:02;2.85;;;0.50;;
28960;SDS011;16068;42.896;20.868;2022-11-21T05:25:48;1.65;;;0.47;;
28960;SDS011;16068;42.896;20.868;2022-11-21T05:28:34;1.10;;;0.60;;
28960;SDS011;16068;42.896;20.868;2022-11-21T05:31:20;0.93;;;0.30;;
28960;SDS011;16068;42.896;20.868;2022-11-21T05:34:05;0.65;;;0.32;;
28960;SDS011;16068;42.896;20.868;2022-11-21T05:36:51;0.50;;;0.50;;
28960;SDS011;16068;42.896;20.868;2022-11-21T05:39:47;5.00;;;0.55;;
28960;SDS011;16068;42.896;20.868;2022-11-21T05:42:33;4.22;;;0.82;;
28960;SDS011;16068;42.896;20.868;2022-11-21T05:45:43;1.63;;;0.60;;
28960;SDS011;16068;42.896;20.868;2022-11-21T05:48:29;0.55;;;0.40;;
28960;SDS011;16068;42.896;20.868;2022-11-21T05:51:15;2.50;;;0.80;;
28960;SDS011;16068;42.896;20.868;2022-11-21T05:54:02;0.75;;;0.50;;
28960;SDS011;16068;42.896;20.868;2022-11-21T05:56:48;15.27;;;3.42;;
28960;SDS011;16068;42.896;20.868;2022-11-21T05:59:34;2.88;;;0.80;;
28960;SDS011;16068;42.896;20.868;2022-11-21T06:02:19;2.30;;;0.85;;
28960;SDS011;16068;42.896;20.868;2022-11-21T06:05:26;4.10;;;1.27;;
28960;SDS011;16068;42.896;20.868;2022-11-21T06:08:12;1.25;;;0.73;;
28960;SDS011;16068;42.896;20.868;2022-11-21T06:10:58;0.80;;;0.55;;
28960;SDS011;16068;42.896;20.868;2022-11-21T06:13:44;3.78;;;0.85;;
28960;SDS011;16068;42.896;20.868;2022-11-21T06:16:30;3.38;;;0.80;;
28960;SDS011;16068;42.896;20.868;2022-11-21T06:19:16;2.38;;;0.60;;
28960;SDS011;16068;42.896;20.868;2022-11-21T06:22:03;1.30;;;0.57;;
28960;SDS011;16068;42.896;20.868;2022-11-21T06:24:49;1.58;;;0.85;;
28960;SDS011;16068;42.896;20.868;2022-11-21T06:27:35;4.05;;;1.50;;
28960;SDS011;16068;42.896;20.868;2022-11-21T06:30:21;1.58;;;0.90;;
28960;SDS011;16068;42.896;20.868;2022-11-21T06:33:06;4.10;;;1.80;;
28960;SDS011;16068;42.896;20.868;2022-11-21T06:35:53;1.80;;;1.23;;
28960;SDS011;16068;42.896;20.868;2022-11-21T06:38:39;1.80;;;0.90;;
28960;SDS011;16068;42.896;20.868;2022-11-21T06:41:25;3.92;;;1.30;;
28960;SDS011;16068;42.896;20.868;2022-11-21T06:44:14;3.03;;;1.38;;
28960;SDS011;16068;42.896;20.868;2022-11-21T06:47:00;1.77;;;1.20;;
28960;SDS011;16068;42.896;20.868;2022-11-21T06:49:46;1.60;;;1.00;;
28960;SDS011;16068;42.896;20.868;2022-11-21T06:52:32;2.72;;;1.05;;
28960;SDS011;16068;42.896;20.868;2022-11-21T06:55:18;3.53;;;1.02;;
28960;SDS011;16068;42.896;20.868;2022-11-21T06:58:05;0.98;;;0.52;;
28960;SDS011;16068;42.896;20.868;2022-11-21T07:00:51;3.55;;;1.77;;
28960;SDS011;16068;42.896;20.868;2022-11-21T07:03:38;2.72;;;1.30;;
28960;SDS011;16068;42.896;20.868;2022-11-21T07:06:24;0.90;;;0.70;;
28960;SDS011;16068;42.896;20.868;2022-11-21T07:09:10;1.98;;;1.05;;
28960;SDS011;16068;42.896;20.868;2022-11-21T07:12:16;0.98;;;0.85;;
28960;SDS011;16068;42.896;20.868;2022-11-21T07:15:21;1.35;;;0.93;;
28960;SDS011;16068;42.896;20.868;2022-11-21T07:18:06;1.58;;;1.40;;
28960;SDS011;16068;42.896;20.868;2022-11-21T07:20:56;1.73;;;1.13;;
28960;SDS011;16068;42.896;20.868;2022-11-21T07:23:45;1.92;;;1.30;;
28960;SDS011;16068;42.896;20.868;2022-11-21T07:26:32;2.83;;;1.60;;
28960;SDS011;16068;42.896;20.868;2022-11-21T07:29:18;2.22;;;1.48;;
28960;SDS011;16068;42.896;20.868;2022-11-21T07:32:03;2.15;;;1.10;;
28960;SDS011;16068;42.896;20.868;2022-11-21T07:34:49;2.03;;;0.95;;
28960;SDS011;16068;42.896;20.868;2022-11-21T07:37:36;1.65;;;0.82;;
28960;SDS011;16068;42.896;20.868;2022-11-21T07:40:23;1.98;;;1.17;;
28960;SDS011;16068;42.896;20.868;2022-11-21T07:43:10;1.45;;;1.30;;
28960;SDS011;16068;42.896;20.868;2022-11-21T07:45:56;1.20;;;0.90;;
28960;SDS011;16068;42.896;20.868;2022-11-21T07:48:42;1.92;;;1.10;;
28960;SDS011;16068;42.896;20.868;2022-11-21T07:51:28;2.05;;;1.25;;
28960;SDS011;16068;42.896;20.868;2022-11-21T07:54:14;2.55;;;1.13;;
28960;SDS011;16068;42.896;20.868;2022-11-21T07:57:00;1.30;;;0.90;;
28960;SDS011;16068;42.896;20.868;2022-11-21T07:59:46;1.70;;;1.20;;
28960;SDS011;16068;42.896;20.868;2022-11-21T08:02:32;1.40;;;0.90;;
28960;SDS011;16068;42.896;20.868;2022-11-21T08:05:18;2.17;;;1.50;;
28960;SDS011;16068;42.896;20.868;2022-11-21T08:08:04;2.10;;;1.25;;
28960;SDS011;16068;42.896;20.868;2022-11-21T08:10:51;5.05;;;1.40;;
28960;SDS011;16068;42.896;20.868;2022-11-21T08:13:37;6.13;;;1.70;;
28960;SDS011;16068;42.896;20.868;2022-11-21T08:16:22;3.78;;;1.40;;
28960;SDS011;16068;42.896;20.868;2022-11-21T08:19:12;3.88;;;1.20;;
28960;SDS011;16068;42.896;20.868;2022-11-21T08:21:59;3.15;;;1.10;;
28960;SDS011;16068;42.896;20.868;2022-11-21T08:24:46;1.98;;;1.10;;
28960;SDS011;16068;42.896;20.868;2022-11-21T08:27:32;3.13;;;1.33;;
28960;SDS011;16068;42.896;20.868;2022-11-21T08:30:18;2.95;;;1.40;;
28960;SDS011;16068;42.896;20.868;2022-11-21T08:33:04;5.10;;;1.73;;
28960;SDS011;16068;42.896;20.868;2022-11-21T08:35:50;2.30;;;1.20;;
28960;SDS011;16068;42.896;20.868;2022-11-21T08:38:36;3.30;;;1.95;;
28960;SDS011;16068;42.896;20.868;2022-11-21T08:41:23;2.35;;;1.30;;
28960;SDS011;16068;42.896;20.868;2022-11-21T08:44:28;4.03;;;1.50;;
28960;SDS011;16068;42.896;20.868;2022-11-21T08:47:15;1.98;;;1.15;;
28960;SDS011;16068;42.896;20.868;2022-11-21T08:50:01;2.13;;;1.17;;
28960;SDS011;16068;42.896;20.868;2022-11-21T08:52:58;2.38;;;1.42;;
28960;SDS011;16068;42.896;20.868;2022-11-21T08:55:45;8.27;;;2.92;;
28960;SDS011;16068;42.896;20.868;2022-11-21T08:58:31;3.58;;;2.03;;
28960;SDS011;16068;42.896;20.868;2022-11-21T09:01:16;2.67;;;1.13;;
28960;SDS011;16068;42.896;20.868;2022-11-21T09:04:03;1.90;;;1.63;;
28960;SDS011;16068;42.896;20.868;2022-11-21T09:06:50;2.13;;;0.95;;
28960;SDS011;16068;42.896;20.868;2022-11-21T09:09:36;2.75;;;1.90;;
28960;SDS011;16068;42.896;20.868;2022-11-21T09:12:21;4.50;;;2.40;;
28960;SDS011;16068;42.896;20.868;2022-11-21T09:15:08;3.92;;;1.80;;
28960;SDS011;16068;42.896;20.868;2022-11-21T09:18:14;2.78;;;1.40;;
28960;SDS011;16068;42.896;20.868;2022-11-21T09:21:01;3.38;;;1.70;;
28960;SDS011;16068;42.896;20.868;2022-11-21T09:23:49;3.85;;;1.95;;
28960;SDS011;16068;42.896;20.868;2022-11-21T09:26:35;3.80;;;1.50;;
28960;SDS011;16068;42.896;20.868;2022-11-21T09:29:21;1.98;;;1.20;;
28960;SDS011;16068;42.896;20.868;2022-11-21T09:32:07;1.63;;;1.02;;
28960;SDS011;16068;42.896;20.868;2022-11-21T09:34:52;3.35;;;1.35;;
28960;SDS011;16068;42.896;20.868;2022-11-21T09:37:38;4.25;;;2.42;;
28960;SDS011;16068;42.896;20.868;2022-11-21T09:40:24;7.40;;;2.10;;
28960;SDS011;16068;42.896;20.868;2022-11-21T09:46:20;2.35;;;1.20;;
28960;SDS011;16068;42.896;20.868;2022-11-21T09:49:08;2.63;;;1.20;;
28960;SDS011;16068;42.896;20.868;2022-11-21T09:51:58;9.82;;;1.92;;
28960;SDS011;16068;42.896;20.868;2022-11-21T09:54:46;4.47;;;1.70;;
28960;SDS011;16068;42.896;20.868;2022-11-21T09:57:35;3.47;;;1.30;;
28960;SDS011;16068;42.896;20.868;2022-11-21T10:00:22;36.55;;;1.95;;
28960;SDS011;16068;42.896;20.868;2022-11-21T10:03:09;43.03;;;2.03;;
28960;SDS011;16068;42.896;20.868;2022-11-21T10:06:01;2.05;;;1.30;;
28960;SDS011;16068;42.896;20.868;2022-11-21T10:12:10;9.85;;;1.30;;
28960;SDS011;16068;42.896;20.868;2022-11-21T10:15:28;39.63;;;3.67;;
28960;SDS011;16068;42.896;20.868;2022-11-21T10:24:55;4.55;;;1.25;;
28960;SDS011;16068;42.896;20.868;2022-11-21T10:28:26;1.02;;;0.93;;
28960;SDS011;16068;42.896;20.868;2022-11-21T10:31:43;40.78;;;3.42;;
28960;SDS011;16068;42.896;20.868;2022-11-21T10:34:29;20.02;;;1.98;;
28960;SDS011;16068;42.896;20.868;2022-11-21T10:37:30;305.45;;;18.23;;
28960;SDS011;16068;42.896;20.868;2022-11-21T10:46:17;4.82;;;0.80;;
28960;SDS011;16068;42.896;20.868;2022-11-21T10:49:04;10.45;;;2.13;;
28960;SDS011;16068;42.896;20.868;2022-11-21T10:51:56;21.05;;;1.85;;
28960;SDS011;16068;42.896;20.868;2022-11-21T10:57:49;6.40;;;1.67;;
28960;SDS011;16068;42.896;20.868;2022-11-21T11:00:36;1.00;;;0.70;;
28960;SDS011;16068;42.896;20.868;2022-11-21T11:03:22;3.22;;;1.58;;
28960;SDS011;16068;42.896;20.868;2022-11-21T11:06:10;2.58;;;1.70;;
28960;SDS011;16068;42.896;20.868;2022-11-21T11:08:56;4.03;;;2.20;;
28960;SDS011;16068;42.896;20.868;2022-11-21T11:11:42;5.40;;;1.80;;
28960;SDS011;16068;42.896;20.868;2022-11-21T11:14:31;11.77;;;3.10;;
28960;SDS011;16068;42.896;20.868;2022-11-21T11:17:30;5.55;;;2.00;;
28960;SDS011;16068;42.896;20.868;2022-11-21T11:20:32;1.95;;;1.33;;
28960;SDS011;16068;42.896;20.868;2022-11-21T11:23:26;2.08;;;1.20;;
28960;SDS011;16068;42.896;20.868;2022-11-21T11:37:41;4.22;;;1.63;;
28960;SDS011;16068;42.896;20.868;2022-11-21T11:40:38;4.63;;;1.65;;
28960;SDS011;16068;42.896;20.868;2022-11-21T11:50:16;4.07;;;1.27;;
28960;SDS011;16068;42.896;20.868;2022-11-21T11:56:04;1.23;;;1.00;;
28960;SDS011;16068;42.896;20.868;2022-11-21T12:05:08;3.97;;;1.05;;
28960;SDS011;16068;42.896;20.868;2022-11-21T12:08:05;2.10;;;1.35;;
28960;SDS011;16068;42.896;20.868;2022-11-21T12:14:44;3.58;;;1.67;;
28960;SDS011;16068;42.896;20.868;2022-11-21T12:24:01;5.28;;;2.75;;
28960;SDS011;16068;42.896;20.868;2022-11-21T12:29:49;4.38;;;2.88;;
28960;SDS011;16068;42.896;20.868;2022-11-21T12:41:56;9.77;;;5.90;;
28960;SDS011;16068;42.896;20.868;2022-11-21T12:51:40;11.30;;;6.22;;
28960;SDS011;16068;42.896;20.868;2022-11-21T13:04:04;15.80;;;5.38;;
28960;SDS011;16068;42.896;20.868;2022-11-21T13:06:53;9.43;;;5.47;;
28960;SDS011;16068;42.896;20.868;2022-11-21T13:09:40;9.77;;;5.15;;
28960;SDS011;16068;42.896;20.868;2022-11-21T13:12:40;14.23;;;5.00;;
28960;SDS011;16068;42.896;20.868;2022-11-21T13:18:43;10.40;;;4.95;;
28960;SDS011;16068;42.896;20.868;2022-11-21T13:21:43;9.27;;;4.97;;
28960;SDS011;16068;42.896;20.868;2022-11-21T13:27:35;14.88;;;7.95;;
28960;SDS011;16068;42.896;20.868;2022-11-21T13:30:24;15.10;;;8.75;;
28960;SDS011;16068;42.896;20.868;2022-11-21T13:33:10;14.18;;;8.57;;
28960;SDS011;16068;42.896;20.868;2022-11-21T13:45:36;10.45;;;5.82;;
28960;SDS011;16068;42.896;20.868;2022-11-21T13:51:48;8.98;;;4.10;;
28960;SDS011;16068;42.896;20.868;2022-11-21T13:54:54;13.23;;;6.03;;
28960;SDS011;16068;42.896;20.868;2022-11-21T14:07:33;16.20;;;7.68;;
28960;SDS011;16068;42.896;20.868;2022-11-21T14:13:04;13.20;;;8.02;;
28960;SDS011;16068;42.896;20.868;2022-11-21T14:19:32;10.50;;;5.78;;
28960;SDS011;16068;42.896;20.868;2022-11-21T14:22:26;15.73;;;7.80;;
28960;SDS011;16068;42.896;20.868;2022-11-21T14:28:27;10.95;;;6.80;;
28960;SDS011;16068;42.896;20.868;2022-11-21T14:31:15;17.25;;;9.20;;
28960;SDS011;16068;42.896;20.868;2022-11-21T14:34:01;11.82;;;6.88;;
28960;SDS011;16068;42.896;20.868;2022-11-21T14:36:47;10.18;;;6.13;;
28960;SDS011;16068;42.896;20.868;2022-11-21T14:39:33;12.27;;;7.30;;
28960;SDS011;16068;42.896;20.868;2022-11-21T14:42:35;9.80;;;5.15;;
28960;SDS011;16068;42.896;20.868;2022-11-21T14:45:22;10.23;;;6.03;;
28960;SDS011;16068;42.896;20.868;2022-11-21T14:48:10;11.50;;;6.57;;
28960;SDS011;16068;42.896;20.868;2022-11-21T14:50:57;11.98;;;6.65;;
28960;SDS011;16068;42.896;20.868;2022-11-21T14:53:44;11.38;;;6.70;;
28960;SDS011;16068;42.896;20.868;2022-11-21T14:56:32;6.50;;;4.35;;
28960;SDS011;16068;42.896;20.868;2022-11-21T14:59:29;9.23;;;6.00;;
28960;SDS011;16068;42.896;20.868;2022-11-21T15:02:18;9.38;;;5.65;;
28960;SDS011;16068;42.896;20.868;2022-11-21T15:05:13;8.93;;;4.85;;
28960;SDS011;16068;42.896;20.868;2022-11-21T15:08:22;9.35;;;4.75;;
28960;SDS011;16068;42.896;20.868;2022-11-21T15:12:04;7.38;;;3.95;;
28960;SDS011;16068;42.896;20.868;2022-11-21T15:14:50;7.03;;;4.38;;
28960;SDS011;16068;42.896;20.868;2022-11-21T15:17:39;9.48;;;4.43;;
28960;SDS011;16068;42.896;20.868;2022-11-21T15:20:47;17.95;;;9.82;;
28960;SDS011;16068;42.896;20.868;2022-11-21T15:23:35;24.10;;;11.20;;
28960;SDS011;16068;42.896;20.868;2022-11-21T15:26:26;17.08;;;8.82;;
28960;SDS011;16068;42.896;20.868;2022-11-21T15:29:18;13.60;;;6.97;;
28960;SDS011;16068;42.896;20.868;2022-11-21T15:35:25;8.38;;;4.97;;
28960;SDS011;16068;42.896;20.868;2022-11-21T15:46:44;8.48;;;5.05;;
28960;SDS011;16068;42.896;20.868;2022-11-21T15:49:31;17.15;;;7.45;;
28960;SDS011;16068;42.896;20.868;2022-11-21T15:52:18;12.43;;;6.82;;
28960;SDS011;16068;42.896;20.868;2022-11-21T15:55:08;9.45;;;5.80;;
28960;SDS011;16068;42.896;20.868;2022-11-21T15:57:57;10.45;;;6.18;;
28960;SDS011;16068;42.896;20.868;2022-11-21T16:00:43;10.63;;;6.63;;
28960;SDS011;16068;42.896;20.868;2022-11-21T16:03:29;11.55;;;7.05;;
28960;SDS011;16068;42.896;20.868;2022-11-21T16:06:15;12.10;;;7.05;;
28960;SDS011;16068;42.896;20.868;2022-11-21T16:09:02;13.60;;;7.05;;
28960;SDS011;16068;42.896;20.868;2022-11-21T16:11:48;9.27;;;5.28;;
28960;SDS011;16068;42.896;20.868;2022-11-21T16:14:34;13.98;;;5.63;;
28960;SDS011;16068;42.896;20.868;2022-11-21T16:17:20;16.10;;;9.20;;
28960;SDS011;16068;42.896;20.868;2022-11-21T16:20:06;17.02;;;9.55;;
28960;SDS011;16068;42.896;20.868;2022-11-21T16:22:53;18.92;;;10.88;;
28960;SDS011;16068;42.896;20.868;2022-11-21T16:25:52;23.38;;;12.43;;
28960;SDS011;16068;42.896;20.868;2022-11-21T16:28:38;23.55;;;12.82;;
28960;SDS011;16068;42.896;20.868;2022-11-21T16:31:25;26.05;;;13.77;;
28960;SDS011;16068;42.896;20.868;2022-11-21T16:34:18;22.73;;;13.23;;
28960;SDS011;16068;42.896;20.868;2022-11-21T16:37:04;35.03;;;16.67;;
28960;SDS011;16068;42.896;20.868;2022-11-21T16:39:52;29.60;;;15.70;;
28960;SDS011;16068;42.896;20.868;2022-11-21T16:42:37;27.58;;;15.70;;
28960;SDS011;16068;42.896;20.868;2022-11-21T16:45:24;28.40;;;15.75;;
28960;SDS011;16068;42.896;20.868;2022-11-21T16:48:10;21.80;;;12.68;;
28960;SDS011;16068;42.896;20.868;2022-11-21T16:51:07;16.73;;;8.45;;
28960;SDS011;16068;42.896;20.868;2022-11-21T16:53:57;9.40;;;5.75;;
28960;SDS011;16068;42.896;20.868;2022-11-21T16:56:50;12.73;;;6.70;;
28960;SDS011;16068;42.896;20.868;2022-11-21T16:59:36;9.38;;;5.03;;
28960;SDS011;16068;42.896;20.868;2022-11-21T17:02:23;15.27;;;7.40;;
28960;SDS011;16068;42.896;20.868;2022-11-21T17:05:09;11.77;;;7.47;;
28960;SDS011;16068;42.896;20.868;2022-11-21T17:07:55;15.15;;;7.07;;
28960;SDS011;16068;42.896;20.868;2022-11-21T17:10:41;8.35;;;4.60;;
28960;SDS011;16068;42.896;20.868;2022-11-21T17:13:27;9.07;;;5.63;;
28960;SDS011;16068;42.896;20.868;2022-11-21T17:16:14;12.30;;;7.22;;
28960;SDS011;16068;42.896;20.868;2022-11-21T17:19:02;18.15;;;10.00;;
28960;SDS011;16068;42.896;20.868;2022-11-21T17:21:49;22.98;;;14.35;;
28960;SDS011;16068;42.896;20.868;2022-11-21T17:24:36;33.03;;;17.75;;
28960;SDS011;16068;42.896;20.868;2022-11-21T17:27:22;28.95;;;17.63;;
28960;SDS011;16068;42.896;20.868;2022-11-21T17:30:08;29.55;;;16.67;;
28960;SDS011;16068;42.896;20.868;2022-11-21T17:32:55;23.38;;;13.23;;
28960;SDS011;16068;42.896;20.868;2022-11-21T17:35:41;18.67;;;10.80;;
28960;SDS011;16068;42.896;20.868;2022-11-21T17:38:28;16.98;;;10.32;;
28960;SDS011;16068;42.896;20.868;2022-11-21T17:41:15;17.45;;;11.55;;
28960;SDS011;16068;42.896;20.868;2022-11-21T17:44:02;17.88;;;11.30;;
28960;SDS011;16068;42.896;20.868;2022-11-21T17:46:48;17.88;;;11.10;;
28960;SDS011;16068;42.896;20.868;2022-11-21T17:49:34;20.27;;;11.18;;
28960;SDS011;16068;42.896;20.868;2022-11-21T17:52:21;16.20;;;10.27;;
28960;SDS011;16068;42.896;20.868;2022-11-21T17:55:07;18.08;;;10.65;;
28960;SDS011;16068;42.896;20.868;2022-11-21T17:57:53;17.48;;;10.50;;
28960;SDS011;16068;42.896;20.868;2022-11-21T18:00:39;16.92;;;10.57;;
28960;SDS011;16068;42.896;20.868;2022-11-21T18:03:25;19.48;;;11.95;;
28960;SDS011;16068;42.896;20.868;2022-11-21T18:06:12;25.85;;;12.77;;
28960;SDS011;16068;42.896;20.868;2022-11-21T18:08:59;17.58;;;10.32;;
28960;SDS011;16068;42.896;20.868;2022-11-21T18:11:45;16.30;;;9.35;;
28960;SDS011;16068;42.896;20.868;2022-11-21T18:14:33;14.23;;;8.57;;
28960;SDS011;16068;42.896;20.868;2022-11-21T18:17:19;15.45;;;8.52;;
28960;SDS011;16068;42.896;20.868;2022-11-21T18:20:05;14.30;;;8.68;;
28960;SDS011;16068;42.896;20.868;2022-11-21T18:22:52;15.20;;;9.38;;
28960;SDS011;16068;42.896;20.868;2022-11-21T18:25:38;10.00;;;6.20;;
28960;SDS011;16068;42.896;20.868;2022-11-21T18:28:24;11.23;;;6.57;;
28960;SDS011;16068;42.896;20.868;2022-11-21T18:31:11;10.95;;;5.82;;
28960;SDS011;16068;42.896;20.868;2022-11-21T18:34:00;8.98;;;5.28;;
28960;SDS011;16068;42.896;20.868;2022-11-21T18:36:47;10.85;;;5.97;;
28960;SDS011;16068;42.896;20.868;2022-11-21T18:39:33;13.75;;;6.10;;
28960;SDS011;16068;42.896;20.868;2022-11-21T18:42:19;10.10;;;6.38;;
28960;SDS011;16068;42.896;20.868;2022-11-21T18:45:05;12.10;;;7.15;;
28960;SDS011;16068;42.896;20.868;2022-11-21T18:47:52;12.30;;;7.32;;
28960;SDS011;16068;42.896;20.868;2022-11-21T18:50:38;11.93;;;7.40;;
28960;SDS011;16068;42.896;20.868;2022-11-21T18:53:24;13.57;;;8.43;;
28960;SDS011;16068;42.896;20.868;2022-11-21T18:56:11;12.18;;;7.35;;
28960;SDS011;16068;42.896;20.868;2022-11-21T18:58:58;14.75;;;8.48;;
28960;SDS011;16068;42.896;20.868;2022-11-21T19:01:44;16.05;;;9.82;;